Time;durP1;ratioP1;P1;durP2;ratioP2;P2;SDS_P1;SDS_P2;PMS_P1;PMS_P2;Temp;Humidity;BMP_temperature;BMP_pressure;BME280_temperature;BME280_humidity;BME280_pressure;Samples;Min_cycle;Max_cycle;Signal;HPM_P1;HPM_P2
2022/11/15 00:00:50;;;;;;;16.30;12.23;;;;;;;;;;5077351;28;20017;-69
2022/11/15 00:03:17;;;;;;;16.48;12.60;;;;;;;;;;5094890;28;20024;-69
2022/11/15 00:05:44;;;;;;;20.38;12.60;;;;;;;;;;5094440;28;20024;-70
2022/11/15 00:08:10;;;;;;;17.35;12.38;;;;;;;;;;5094964;28;20020;-69
2022/11/15 00:10:37;;;;;;;17.75;13.43;;;;;;;;;;5095006;28;20032;-70
2022/11/15 00:13:11;;;;;;;21.48;13.60;;;;;;;;;;5094764;28;20023;-69
2022/11/15 00:15:37;;;;;;;17.92;13.77;;;;;;;;;;5094495;28;20028;-70
2022/11/15 00:18:04;;;;;;;20.08;13.88;;;;;;;;;;5093911;28;20435;-69
2022/11/15 00:20:31;;;;;;;18.88;14.70;;;;;;;;;;5094233;28;20062;-69
2022/11/15 00:22:57;;;;;;;17.63;13.80;;;;;;;;;;5094651;28;20032;-70
2022/11/15 00:25:24;;;;;;;17.10;13.25;;;;;;;;;;5094448;28;20503;-70
2022/11/15 00:27:51;;;;;;;17.98;13.32;;;;;;;;;;5094312;28;20027;-69
2022/11/15 00:30:18;;;;;;;15.50;11.75;;;;;;;;;;5094331;28;20016;-69
2022/11/15 00:32:44;;;;;;;16.92;12.63;;;;;;;;;;5094552;28;20039;-70
2022/11/15 00:35:10;;;;;;;16.42;12.60;;;;;;;;;;5094076;28;20012;-69
2022/11/15 00:37:36;;;;;;;16.20;12.68;;;;;;;;;;5093966;28;20044;-69
2022/11/15 00:40:03;;;;;;;17.77;12.60;;;;;;;;;;5094323;28;20028;-70
2022/11/15 00:42:29;;;;;;;15.82;12.57;;;;;;;;;;5094614;28;20077;-70
2022/11/15 00:44:55;;;;;;;16.33;12.45;;;;;;;;;;5081999;28;20020;-69
2022/11/15 00:47:22;;;;;;;17.17;13.35;;;;;;;;;;5114421;28;20030;-69
2022/11/15 00:49:48;;;;;;;15.48;12.25;;;;;;;;;;5114479;28;20039;-69
2022/11/15 00:52:14;;;;;;;15.23;12.40;;;;;;;;;;5114435;28;20016;-69
2022/11/15 00:54:41;;;;;;;17.55;12.23;;;;;;;;;;5114420;28;20076;-69
2022/11/15 00:57:07;;;;;;;16.48;12.40;;;;;;;;;;5114310;28;20020;-69
2022/11/15 00:59:33;;;;;;;18.08;12.30;;;;;;;;;;5114641;28;20027;-70
2022/11/15 01:02:00;;;;;;;15.80;11.70;;;;;;;;;;5114296;28;20076;-70
2022/11/15 01:04:27;;;;;;;14.77;11.60;;;;;;;;;;5113806;28;20042;-69
2022/11/15 01:06:54;;;;;;;13.77;11.85;;;;;;;;;;5114159;28;20026;-70
2022/11/15 01:09:20;;;;;;;15.82;10.43;;;;;;;;;;5095884;28;20035;-69
2022/11/15 01:11:46;;;;;;;15.63;11.25;;;;;;;;;;5113990;28;20032;-69
2022/11/15 01:14:12;;;;;;;14.35;11.52;;;;;;;;;;5114083;28;20505;-70
2022/11/15 01:16:39;;;;;;;17.02;12.20;;;;;;;;;;5114068;28;20038;-70
2022/11/15 01:19:05;;;;;;;18.02;11.23;;;;;;;;;;5113587;28;20544;-70
2022/11/15 01:21:31;;;;;;;20.00;12.05;;;;;;;;;;5095610;28;20036;-69
2022/11/15 01:23:58;;;;;;;18.27;12.07;;;;;;;;;;5095560;28;20028;-70
2022/11/15 01:26:25;;;;;;;15.48;11.88;;;;;;;;;;5114060;28;20019;-70
2022/11/15 01:28:51;;;;;;;15.25;11.73;;;;;;;;;;5112819;28;20031;-69
2022/11/15 01:31:19;;;;;;;15.85;12.13;;;;;;;;;;5113807;28;20038;-70
2022/11/15 01:33:46;;;;;;;23.10;15.68;;;;;;;;;;5113552;28;20032;-70
2022/11/15 01:36:14;;;;;;;30.90;20.40;;;;;;;;;;5113390;28;20035;-69
2022/11/15 01:38:40;;;;;;;29.80;19.60;;;;;;;;;;5113551;28;20039;-70
2022/11/15 01:41:06;;;;;;;26.85;19.20;;;;;;;;;;5113367;28;20419;-70
2022/11/15 01:43:37;;;;;;;22.55;15.52;;;;;;;;;;5113572;28;20024;-69
2022/11/15 01:46:06;;;;;;;19.92;12.18;;;;;;;;;;5112724;28;20015;-70
2022/11/15 01:48:34;;;;;;;14.13;10.05;;;;;;;;;;5113071;28;20080;-70
2022/11/15 01:51:01;;;;;;;12.55;10.38;;;;;;;;;;5113360;28;20019;-70
2022/11/15 01:53:27;;;;;;;13.95;11.15;;;;;;;;;;5113161;28;20492;-69
2022/11/15 01:55:54;;;;;;;14.75;10.25;;;;;;;;;;5095219;28;20026;-70
2022/11/15 01:58:20;;;;;;;13.55;10.65;;;;;;;;;;5113236;28;20034;-70
2022/11/15 02:00:47;;;;;;;13.25;11.02;;;;;;;;;;5112817;28;20023;-69
2022/11/15 02:03:14;;;;;;;12.30;10.02;;;;;;;;;;5113066;28;20407;-69
2022/11/15 02:05:41;;;;;;;15.60;11.05;;;;;;;;;;5094637;28;20026;-70
2022/11/15 02:08:19;;;;;;;15.00;11.27;;;;;;;;;;5113360;28;20038;-69
2022/11/15 02:10:48;;;;;;;16.00;10.77;;;;;;;;;;5112916;28;20498;-69
2022/11/15 02:13:16;;;;;;;14.73;11.23;;;;;;;;;;5112987;28;20613;-70
2022/11/15 02:15:57;;;;;;;14.55;10.10;;;;;;;;;;5112524;28;20026;-70
2022/11/15 02:18:34;;;;;;;11.88;10.15;;;;;;;;;;5112726;28;20492;-69
2022/11/15 02:21:06;;;;;;;12.27;8.70;;;;;;;;;;5112999;28;20035;-70
2022/11/15 02:23:39;;;;;;;12.20;8.75;;;;;;;;;;5112973;28;20027;-70
2022/11/15 02:26:24;;;;;;;11.25;8.27;;;;;;;;;;5112734;28;20035;-70
2022/11/15 02:29:04;;;;;;;12.95;9.10;;;;;;;;;;5112806;28;20020;-70
2022/11/15 02:31:53;;;;;;;15.52;8.88;;;;;;;;;;5112349;28;20411;-70
2022/11/15 02:34:19;;;;;;;11.57;8.90;;;;;;;;;;5099617;28;20036;-69
2022/11/15 02:36:52;;;;;;;13.57;9.23;;;;;;;;;;5112342;28;20044;-69
2022/11/15 02:39:36;;;;;;;11.02;8.40;;;;;;;;;;5112182;28;20484;-68
2022/11/15 02:42:04;;;;;;;12.77;9.15;;;;;;;;;;5112775;28;20036;-69
2022/11/15 02:44:44;;;;;;;13.27;9.23;;;;;;;;;;5112124;28;20019;-69
2022/11/15 02:47:13;;;;;;;14.30;8.75;;;;;;;;;;5112361;28;20030;-69
2022/11/15 02:49:45;;;;;;;10.85;8.30;;;;;;;;;;5112405;28;20407;-68
2022/11/15 02:52:15;;;;;;;12.82;8.63;;;;;;;;;;5112453;28;20034;-68
2022/11/15 02:54:42;;;;;;;11.80;8.43;;;;;;;;;;5112440;28;20020;-69
2022/11/15 02:57:12;;;;;;;11.48;9.00;;;;;;;;;;5112573;28;20032;-68
2022/11/15 02:59:57;;;;;;;10.60;8.68;;;;;;;;;;5112304;28;20038;-68
2022/11/15 03:02:23;;;;;;;10.07;8.43;;;;;;;;;;5112300;28;20030;-68
2022/11/15 03:04:55;;;;;;;9.57;7.88;;;;;;;;;;5112326;28;20038;-68
2022/11/15 03:07:29;;;;;;;11.60;8.48;;;;;;;;;;5094104;28;20024;-69
2022/11/15 03:10:02;;;;;;;10.18;8.23;;;;;;;;;;5112133;28;20354;-68
2022/11/15 03:12:37;;;;;;;9.85;8.18;;;;;;;;;;5112269;28;20026;-68
2022/11/15 03:15:24;;;;;;;10.95;8.20;;;;;;;;;;5111804;28;20024;-69
2022/11/15 03:17:56;;;;;;;12.20;8.25;;;;;;;;;;5111980;28;20050;-68
2022/11/15 03:20:24;;;;;;;10.38;8.15;;;;;;;;;;5112077;28;20027;-68
2022/11/15 03:22:51;;;;;;;11.80;9.00;;;;;;;;;;5112500;28;20040;-68
2022/11/15 03:25:20;;;;;;;11.82;8.80;;;;;;;;;;5112060;28;20034;-68
2022/11/15 03:27:49;;;;;;;10.50;8.20;;;;;;;;;;5111997;28;20026;-67
2022/11/15 03:30:15;;;;;;;13.25;8.13;;;;;;;;;;5112089;28;20015;-69
2022/11/15 03:32:47;;;;;;;11.23;8.25;;;;;;;;;;5112398;28;20031;-69
2022/11/15 03:35:24;;;;;;;10.18;8.50;;;;;;;;;;5112234;28;20073;-69
2022/11/15 03:38:03;;;;;;;12.02;7.88;;;;;;;;;;5111801;28;20043;-69
2022/11/15 03:40:48;;;;;;;11.02;8.35;;;;;;;;;;5112205;28;20020;-68
2022/11/15 03:43:17;;;;;;;10.57;7.55;;;;;;;;;;5111679;28;20472;-68
2022/11/15 03:46:10;;;;;;;11.45;7.88;;;;;;;;;;5111668;28;20476;-68
2022/11/15 03:48:40;;;;;;;10.10;8.02;;;;;;;;;;5107293;28;20043;-68
2022/11/15 03:51:06;;;;;;;9.32;7.53;;;;;;;;;;5112039;28;20022;-69
2022/11/15 03:53:33;;;;;;;7.78;6.85;;;;;;;;;;5115529;28;20031;-68
2022/11/15 03:55:59;;;;;;;8.82;7.10;;;;;;;;;;5115490;28;20026;-68
2022/11/15 03:58:25;;;;;;;9.40;7.00;;;;;;;;;;5115154;28;20042;-68
2022/11/15 04:00:52;;;;;;;12.57;7.15;;;;;;;;;;5115566;28;20027;-69
2022/11/15 04:03:18;;;;;;;9.70;6.60;;;;;;;;;;5097428;28;20023;-69
2022/11/15 04:05:44;;;;;;;8.85;7.10;;;;;;;;;;5115171;28;20536;-68
2022/11/15 04:08:11;;;;;;;9.48;6.80;;;;;;;;;;5115315;28;20028;-69
2022/11/15 04:10:37;;;;;;;9.55;6.60;;;;;;;;;;5115366;28;20031;-68
2022/11/15 04:13:03;;;;;;;7.75;5.93;;;;;;;;;;5114676;28;20480;-69
2022/11/15 04:15:30;;;;;;;8.13;6.55;;;;;;;;;;5115156;28;20020;-69
2022/11/15 04:17:57;;;;;;;8.57;6.75;;;;;;;;;;5114944;28;20035;-68
2022/11/15 04:25:58;;;;;;;9.68;6.28;;;;;;;;;;5114727;28;20788;-70
2022/11/15 04:28:24;;;;;;;11.32;6.25;;;;;;;;;;5114981;28;20391;-70
2022/11/15 04:30:51;;;;;;;12.13;7.70;;;;;;;;;;5114961;28;20023;-70
2022/11/15 04:33:17;;;;;;;18.60;12.57;;;;;;;;;;5115085;28;20030;-70
2022/11/15 04:37:11;;;;;;;8.23;6.70;;;;;;;;;;5114588;28;20024;-70
2022/11/15 04:38:30;;;;;;;9.95;6.13;;;;;;;;;;5094281;28;20032;-70
2022/11/15 04:40:56;;;;;;;7.72;5.97;;;;;;;;;;5094190;28;20035;-68
2022/11/15 04:43:23;;;;;;;8.57;5.78;;;;;;;;;;5094240;28;20036;-70
2022/11/15 04:45:49;;;;;;;13.15;6.85;;;;;;;;;;5093434;28;20392;-70
2022/11/15 04:48:15;;;;;;;6.97;5.70;;;;;;;;;;5110633;28;20395;-70
2022/11/15 04:50:42;;;;;;;10.15;5.78;;;;;;;;;;5114764;28;20023;-70
2022/11/15 04:53:08;;;;;;;10.70;5.95;;;;;;;;;;5114364;28;20474;-70
2022/11/15 04:55:34;;;;;;;6.97;4.70;;;;;;;;;;5113644;28;20465;-70
2022/11/15 04:58:01;;;;;;;10.32;5.18;;;;;;;;;;5096055;28;20040;-70
2022/11/15 05:00:28;;;;;;;10.35;6.72;;;;;;;;;;5114264;28;20054;-70
2022/11/15 05:05:41;;;;;;;11.05;7.72;;;;;;;;;;5114212;28;20012;-70
2022/11/15 05:08:07;;;;;;;10.27;5.22;;;;;;;;;;5114256;28;20027;-70
2022/11/15 05:10:33;;;;;;;7.50;5.32;;;;;;;;;;5114037;28;20016;-70
2022/11/15 05:13:00;;;;;;;8.57;4.43;;;;;;;;;;5114397;28;20027;-70
2022/11/15 05:15:26;;;;;;;11.98;7.10;;;;;;;;;;5095621;28;20024;-70
2022/11/15 05:17:57;;;;;;;4.97;4.20;;;;;;;;;;5095710;28;20035;-70
2022/11/15 05:20:23;;;;;;;;;;;;;;;;;;5114712;28;20028;-70
2022/11/15 05:22:50;;;;;;;7.80;4.40;;;;;;;;;;5113858;28;19904;-70
2022/11/15 05:25:16;;;;;;;6.30;4.50;;;;;;;;;;5113414;28;20027;-70
2022/11/15 05:27:42;;;;;;;7.55;4.28;;;;;;;;;;5113515;28;20026;-70
2022/11/15 05:30:09;;;;;;;7.97;4.38;;;;;;;;;;5114168;28;20031;-69
2022/11/15 05:32:35;;;;;;;7.43;4.20;;;;;;;;;;5113707;28;20036;-69
2022/11/15 05:35:01;;;;;;;5.82;4.05;;;;;;;;;;5113424;28;20027;-69
2022/11/15 05:37:29;;;;;;;10.18;4.10;;;;;;;;;;5127078;27;20412;-70
2022/11/15 05:39:56;;;;;;;9.88;4.43;;;;;;;;;;5133903;27;20023;-70
2022/11/15 05:42:22;;;;;;;9.90;4.07;;;;;;;;;;5134103;27;20429;-70
2022/11/15 05:44:49;;;;;;;7.40;5.78;;;;;;;;;;5124079;27;20026;-69
2022/11/15 05:47:20;;;;;;;7.35;4.80;;;;;;;;;;5109351;27;20034;-69
2022/11/15 05:49:47;;;;;;;9.15;4.82;;;;;;;;;;5134070;27;20023;-69
2022/11/15 05:52:15;;;;;;;8.43;5.60;;;;;;;;;;5133985;27;20050;-70
2022/11/15 05:54:42;;;;;;;7.82;4.65;;;;;;;;;;5133434;27;20031;-70
2022/11/15 05:57:08;;;;;;;7.82;4.22;;;;;;;;;;5133976;27;20056;-69
2022/11/15 05:59:35;;;;;;;4.70;3.97;;;;;;;;;;5133732;27;20027;-69
2022/11/15 06:02:01;;;;;;;26.42;16.08;;;;;;;;;;5133765;27;20026;-70
2022/11/15 06:04:28;;;;;;;13.13;7.88;;;;;;;;;;5133543;27;20031;-70
2022/11/15 06:06:54;;;;;;;10.98;7.68;;;;;;;;;;5133584;27;20027;-69
2022/11/15 06:09:20;;;;;;;6.53;4.97;;;;;;;;;;5133635;27;20015;-69
2022/11/15 06:11:47;;;;;;;6.60;4.93;;;;;;;;;;5133803;27;20034;-70
2022/11/15 06:14:14;;;;;;;6.90;5.30;;;;;;;;;;5132892;27;20015;-69
2022/11/15 06:16:40;;;;;;;6.28;4.45;;;;;;;;;;5133261;27;20044;-70
2022/11/15 06:19:09;;;;;;;12.50;9.35;;;;;;;;;;5133631;27;20026;-69
2022/11/15 06:21:35;;;;;;;12.48;6.38;;;;;;;;;;5133266;27;20019;-70
2022/11/15 06:24:02;;;;;;;9.90;6.63;;;;;;;;;;5133005;27;20042;-69
2022/11/15 06:26:28;;;;;;;7.05;5.07;;;;;;;;;;5133276;27;20135;-69
2022/11/15 06:28:54;;;;;;;8.60;5.40;;;;;;;;;;5133513;27;20011;-70
2022/11/15 06:31:21;;;;;;;20.55;15.48;;;;;;;;;;5133495;27;20031;-69
2022/11/15 06:33:49;;;;;;;10.57;6.88;;;;;;;;;;5133107;27;20509;-70
2022/11/15 06:36:19;;;;;;;10.20;5.43;;;;;;;;;;5114199;28;20039;-68
2022/11/15 06:38:45;;;;;;;7.85;6.68;;;;;;;;;;5133232;27;20039;-69
2022/11/15 06:41:12;;;;;;;7.82;5.60;;;;;;;;;;5133137;27;20400;-69
2022/11/15 06:43:39;;;;;;;9.13;7.60;;;;;;;;;;5133034;27;20023;-70
2022/11/15 06:46:06;;;;;;;8.57;5.70;;;;;;;;;;5101121;27;20047;-70
2022/11/15 06:48:33;;;;;;;7.97;5.18;;;;;;;;;;5130591;28;20037;-69
2022/11/15 06:51:00;;;;;;;16.95;10.88;;;;;;;;;;5132784;28;20020;-70
2022/11/15 06:53:27;;;;;;;9.18;7.20;;;;;;;;;;5133052;28;20372;-69
2022/11/15 06:55:53;;;;;;;8.27;5.53;;;;;;;;;;5132873;28;20015;-69
2022/11/15 06:58:21;;;;;;;12.50;8.40;;;;;;;;;;5132731;28;20039;-70
2022/11/15 07:00:47;;;;;;;11.70;7.10;;;;;;;;;;5132937;28;20027;-69
2022/11/15 07:03:14;;;;;;;10.52;6.60;;;;;;;;;;5133174;28;20035;-70
2022/11/15 07:05:40;;;;;;;9.10;5.05;;;;;;;;;;5132555;28;20031;-69
2022/11/15 07:08:06;;;;;;;12.77;5.20;;;;;;;;;;5132935;28;20023;-69
2022/11/15 07:10:33;;;;;;;9.95;5.63;;;;;;;;;;5132827;28;20025;-69
2022/11/15 07:12:59;;;;;;;11.60;7.32;;;;;;;;;;5114459;28;20032;-69
2022/11/15 07:15:26;;;;;;;17.17;8.68;;;;;;;;;;5109743;28;20023;-70
2022/11/15 07:17:52;;;;;;;11.65;5.75;;;;;;;;;;5111390;28;20044;-70
2022/11/15 07:20:19;;;;;;;11.50;5.57;;;;;;;;;;5106136;28;20028;-69
2022/11/15 07:22:45;;;;;;;14.98;5.75;;;;;;;;;;5111784;28;20027;-70
2022/11/15 07:25:12;;;;;;;10.23;5.72;;;;;;;;;;5111529;28;20016;-70
2022/11/15 07:27:38;;;;;;;11.57;5.78;;;;;;;;;;5114144;28;20031;-70
2022/11/15 07:30:05;;;;;;;10.05;5.85;;;;;;;;;;5112109;28;20033;-69
2022/11/15 07:32:31;;;;;;;8.82;6.18;;;;;;;;;;5115394;28;20023;-69
2022/11/15 07:34:57;;;;;;;12.00;6.43;;;;;;;;;;5113176;28;20388;-69
2022/11/15 07:37:24;;;;;;;15.98;9.02;;;;;;;;;;5107389;28;20043;-69
2022/11/15 07:39:50;;;;;;;8.75;5.20;;;;;;;;;;5115721;28;20083;-70
2022/11/15 07:45:02;;;;;;;8.77;5.88;;;;;;;;;;5101533;28;20024;-70
2022/11/15 07:47:29;;;;;;;10.77;7.18;;;;;;;;;;5109301;28;20023;-69
2022/11/15 07:49:55;;;;;;;8.68;4.90;;;;;;;;;;5098750;28;20024;-69
2022/11/15 07:52:21;;;;;;;8.77;4.22;;;;;;;;;;5113476;27;20350;-69
2022/11/15 07:54:48;;;;;;;6.72;4.75;;;;;;;;;;5118935;27;20032;-70
2022/11/15 07:57:14;;;;;;;6.57;3.95;;;;;;;;;;5113069;28;20032;-69
2022/11/15 07:59:40;;;;;;;8.82;4.18;;;;;;;;;;5115013;28;20034;-70
2022/11/15 08:02:06;;;;;;;9.55;5.28;;;;;;;;;;5115014;28;20049;-69
2022/11/15 08:04:33;;;;;;;8.63;4.60;;;;;;;;;;5114630;28;20020;-69
2022/11/15 08:06:59;;;;;;;7.65;3.85;;;;;;;;;;5112051;28;20419;-70
2022/11/15 08:09:25;;;;;;;5.95;4.32;;;;;;;;;;5115223;28;20019;-69
2022/11/15 08:11:52;;;;;;;8.70;4.07;;;;;;;;;;5114857;28;20028;-69
2022/11/15 08:14:18;;;;;;;6.78;4.03;;;;;;;;;;5113986;28;20400;-70
2022/11/15 08:16:44;;;;;;;8.10;3.75;;;;;;;;;;5099402;28;20038;-69
2022/11/15 08:19:11;;;;;;;6.78;3.95;;;;;;;;;;5107398;28;20032;-70
2022/11/15 08:21:37;;;;;;;8.10;4.80;;;;;;;;;;5114601;28;20030;-70
2022/11/15 08:24:04;;;;;;;5.65;4.05;;;;;;;;;;5094575;28;20028;-70
2022/11/15 08:26:30;;;;;;;6.85;4.18;;;;;;;;;;5094094;28;20050;-70
2022/11/15 08:28:56;;;;;;;6.72;4.07;;;;;;;;;;5095544;28;20038;-69
2022/11/15 08:31:23;;;;;;;8.60;4.15;;;;;;;;;;5093776;28;20552;-70
2022/11/15 08:33:49;;;;;;;9.65;4.30;;;;;;;;;;5092897;28;20140;-70
2022/11/15 08:36:16;;;;;;;9.23;4.75;;;;;;;;;;5113619;28;20046;-70
2022/11/15 08:38:43;;;;;;;8.88;4.63;;;;;;;;;;5112990;28;20038;-69
2022/11/15 08:41:11;;;;;;;9.02;4.88;;;;;;;;;;5112996;28;20023;-69
2022/11/15 08:43:37;;;;;;;7.43;4.75;;;;;;;;;;5113511;28;20032;-70
2022/11/15 08:46:03;;;;;;;9.85;5.13;;;;;;;;;;5110902;28;20035;-68
2022/11/15 08:48:30;;;;;;;10.40;4.40;;;;;;;;;;5112464;28;20050;-69
2022/11/15 08:50:56;;;;;;;12.52;4.93;;;;;;;;;;5094280;28;20514;-69
2022/11/15 08:53:23;;;;;;;10.32;5.55;;;;;;;;;;5113102;28;20469;-69
2022/11/15 08:55:49;;;;;;;10.63;5.60;;;;;;;;;;5113223;28;20023;-69
2022/11/15 08:58:15;;;;;;;6.93;4.43;;;;;;;;;;5112916;28;20044;-69
2022/11/15 09:00:42;;;;;;;6.80;4.90;;;;;;;;;;5113118;28;20468;-69
2022/11/15 09:03:09;;;;;;;7.57;5.03;;;;;;;;;;5112805;28;20023;-69
2022/11/15 09:05:38;;;;;;;6.68;4.80;;;;;;;;;;5112669;28;20032;-69
2022/11/15 09:08:05;;;;;;;5.78;4.47;;;;;;;;;;5110704;28;20024;-68
2022/11/15 09:10:31;;;;;;;7.20;4.47;;;;;;;;;;5088936;28;20032;-68
2022/11/15 09:12:58;;;;;;;7.65;4.38;;;;;;;;;;5092280;28;20031;-69
2022/11/15 09:15:24;;;;;;;9.68;4.00;;;;;;;;;;5099563;28;20040;-69
2022/11/15 09:17:50;;;;;;;5.70;2.95;;;;;;;;;;5112192;28;20028;-68
2022/11/15 09:20:17;;;;;;;8.38;3.35;;;;;;;;;;5112611;28;20027;-69
2022/11/15 09:22:43;;;;;;;6.40;3.30;;;;;;;;;;5111864;28;20023;-69
2022/11/15 09:25:09;;;;;;;7.40;3.35;;;;;;;;;;5098163;28;20016;-69
2022/11/15 09:27:36;;;;;;;7.63;3.60;;;;;;;;;;5100242;28;20018;-69
2022/11/15 09:30:02;;;;;;;10.55;3.30;;;;;;;;;;5112226;28;20034;-68
2022/11/15 09:32:30;;;;;;;4.50;3.25;;;;;;;;;;5111620;28;20016;-68
2022/11/15 09:34:56;;;;;;;5.47;2.75;;;;;;;;;;5112186;28;20023;-68
2022/11/15 09:37:22;;;;;;;4.65;3.58;;;;;;;;;;5116497;27;20043;-69
2022/11/15 09:39:49;;;;;;;5.68;3.13;;;;;;;;;;5118115;27;20046;-68
2022/11/15 09:42:15;;;;;;;3.67;2.83;;;;;;;;;;5112011;28;20018;-69
2022/11/15 09:44:46;;;;;;;7.00;3.03;;;;;;;;;;5065944;28;20030;-69
2022/11/15 09:47:16;;;;;;;3.83;2.95;;;;;;;;;;5108438;27;20043;-69
2022/11/15 09:49:42;;;;;;;5.35;2.97;;;;;;;;;;5112119;27;20034;-69
2022/11/15 09:52:10;;;;;;;5.35;2.67;;;;;;;;;;5091625;28;20706;-69
2022/11/15 09:54:42;;;;;;;4.38;2.90;;;;;;;;;;5110579;28;20400;-69
2022/11/15 09:57:13;;;;;;;6.70;3.13;;;;;;;;;;5111483;28;20092;-69
2022/11/15 09:59:58;;;;;;;4.78;3.05;;;;;;;;;;5111166;28;20032;-69
2022/11/15 10:02:24;;;;;;;5.85;3.03;;;;;;;;;;5110276;28;20019;-69
2022/11/15 10:04:52;;;;;;;7.68;3.20;;;;;;;;;;5111127;28;20020;-68
2022/11/15 10:07:32;;;;;;;5.00;3.15;;;;;;;;;;5107852;28;20023;-69
2022/11/15 10:10:05;;;;;;;5.32;3.17;;;;;;;;;;5105634;28;20507;-69
2022/11/15 10:12:31;;;;;;;8.00;3.28;;;;;;;;;;5111030;28;20026;-69
2022/11/15 10:15:03;;;;;;;6.55;3.20;;;;;;;;;;5109436;28;20396;-69
2022/11/15 10:17:35;;;;;;;6.00;3.42;;;;;;;;;;5111167;28;20184;-69
2022/11/15 10:20:21;;;;;;;8.00;3.40;;;;;;;;;;5111268;28;20042;-69
2022/11/15 10:22:52;;;;;;;5.25;3.35;;;;;;;;;;5111243;28;20020;-68
2022/11/15 10:25:18;;;;;;;4.38;3.13;;;;;;;;;;5095743;28;20026;-68
2022/11/15 10:27:46;;;;;;;7.35;3.33;;;;;;;;;;5098666;28;20118;-68
2022/11/15 10:30:14;;;;;;;4.43;3.20;;;;;;;;;;5110820;28;20024;-68
2022/11/15 10:32:41;;;;;;;3.45;2.90;;;;;;;;;;5093038;28;20847;-68
2022/11/15 10:35:22;;;;;;;4.15;2.63;;;;;;;;;;5111271;28;20024;-68
2022/11/15 10:37:48;;;;;;;;;;;;;;;;;;5111417;28;20480;-68
2022/11/15 10:40:22;;;;;;;4.82;2.92;;;;;;;;;;5108994;28;20383;-68
2022/11/15 10:42:49;;;;;;;5.68;3.95;;;;;;;;;;5097820;28;20024;-69
2022/11/15 10:45:26;;;;;;;4.93;2.85;;;;;;;;;;5102265;28;20016;-68
2022/11/15 10:47:53;;;;;;;5.93;2.65;;;;;;;;;;5106049;28;20036;-68
2022/11/15 10:50:27;;;;;;;7.57;2.72;;;;;;;;;;5111161;28;20034;-69
2022/11/15 10:52:54;;;;;;;3.47;2.28;;;;;;;;;;5110721;28;20506;-70
2022/11/15 10:55:23;;;;;;;7.93;2.90;;;;;;;;;;5111063;28;20514;-70
2022/11/15 10:57:52;;;;;;;8.65;3.40;;;;;;;;;;5079131;28;20042;-70
2022/11/15 11:00:21;;;;;;;5.22;2.90;;;;;;;;;;5106773;28;20042;-70
2022/11/15 11:02:56;;;;;;;14.80;3.58;;;;;;;;;;5097220;28;20031;-70
2022/11/15 11:05:27;;;;;;;7.63;2.88;;;;;;;;;;5108759;28;20023;-70
2022/11/15 11:08:04;;;;;;;7.93;2.65;;;;;;;;;;5097049;28;20039;-70
2022/11/15 11:10:33;;;;;;;7.13;3.00;;;;;;;;;;5114954;28;20403;-69
2022/11/15 11:13:18;;;;;;;7.03;2.83;;;;;;;;;;5114798;28;20024;-70
2022/11/15 11:15:46;;;;;;;5.20;2.85;;;;;;;;;;5096649;28;20434;-70
2022/11/15 11:18:19;;;;;;;4.38;2.70;;;;;;;;;;5114852;28;20506;-69
2022/11/15 11:20:48;;;;;;;3.92;2.00;;;;;;;;;;5114353;28;20020;-69
2022/11/15 11:23:17;;;;;;;2.95;2.10;;;;;;;;;;5114529;28;20027;-70
2022/11/15 11:25:47;;;;;;;6.00;1.92;;;;;;;;;;5114757;28;20026;-70
2022/11/15 11:28:31;;;;;;;4.82;2.40;;;;;;;;;;5114429;28;20038;-70
2022/11/15 11:31:01;;;;;;;5.72;2.40;;;;;;;;;;5114793;28;20034;-71
2022/11/15 11:33:32;;;;;;;5.07;2.55;;;;;;;;;;5096498;28;20034;-70
2022/11/15 11:36:04;;;;;;;4.70;2.42;;;;;;;;;;5114477;28;20411;-71
2022/11/15 11:38:31;;;;;;;5.50;2.80;;;;;;;;;;5113934;28;20046;-70
2022/11/15 11:41:15;;;;;;;3.25;2.35;;;;;;;;;;5113855;28;20026;-70
2022/11/15 11:43:48;;;;;;;3.55;2.60;;;;;;;;;;5114301;28;20036;-70
2022/11/15 11:46:33;;;;;;;5.05;3.05;;;;;;;;;;5097296;28;20038;-70
2022/11/15 11:49:04;;;;;;;7.88;2.80;;;;;;;;;;5094198;28;20534;-70
2022/11/15 11:51:30;;;;;;;;;;;;;;;;;;5094749;28;20042;-69
2022/11/15 11:54:23;;;;;;;4.35;2.80;;;;;;;;;;5093848;28;19912;-70
2022/11/15 11:56:51;;;;;;;5.50;2.88;;;;;;;;;;5089642;28;20039;-70
2022/11/15 11:59:20;;;;;;;5.40;3.00;;;;;;;;;;5094142;28;20032;-70
2022/11/15 12:01:46;;;;;;;5.80;2.95;;;;;;;;;;5094001;28;20035;-70
2022/11/15 12:04:28;;;;;;;5.68;2.47;;;;;;;;;;5093995;28;20028;-70
2022/11/15 12:07:02;;;;;;;9.70;3.47;;;;;;;;;;5093995;28;20034;-70
2022/11/15 12:09:29;;;;;;;7.00;3.45;;;;;;;;;;5093961;28;20028;-70
2022/11/15 12:12:16;;;;;;;6.57;3.30;;;;;;;;;;5093227;28;20366;-70
2022/11/15 12:14:44;;;;;;;4.43;3.20;;;;;;;;;;5094954;28;20072;-70
2022/11/15 12:17:11;;;;;;;6.47;3.55;;;;;;;;;;5094458;28;20078;-70
2022/11/15 12:19:38;;;;;;;9.30;3.70;;;;;;;;;;5094657;28;20396;-70
2022/11/15 12:22:13;;;;;;;8.73;3.80;;;;;;;;;;5094413;28;20495;-70
2022/11/15 12:24:44;;;;;;;7.78;3.30;;;;;;;;;;5094624;28;20035;-70
2022/11/15 12:27:16;;;;;;;5.95;3.20;;;;;;;;;;5097590;28;20024;-70
2022/11/15 12:29:48;;;;;;;7.57;3.53;;;;;;;;;;5113173;28;20034;-70
2022/11/15 12:32:34;;;;;;;5.57;3.35;;;;;;;;;;5106080;28;20024;-70
2022/11/15 12:35:05;;;;;;;8.70;3.55;;;;;;;;;;5101671;28;20026;-69
2022/11/15 12:37:34;;;;;;;7.15;3.60;;;;;;;;;;5093742;28;20054;-70
2022/11/15 12:40:00;;;;;;;6.05;3.25;;;;;;;;;;5113145;28;20407;-70
2022/11/15 12:42:27;;;;;;;8.32;3.50;;;;;;;;;;5100927;28;20027;-70
2022/11/15 12:44:53;;;;;;;5.53;3.30;;;;;;;;;;5113361;28;20019;-70
2022/11/15 12:47:23;;;;;;;10.48;3.90;;;;;;;;;;5122105;27;20015;-70
2022/11/15 12:49:50;;;;;;;7.85;3.70;;;;;;;;;;5116569;27;20027;-70
2022/11/15 12:52:17;;;;;;;8.45;3.85;;;;;;;;;;5112963;28;20445;-70
2022/11/15 12:54:43;;;;;;;6.60;4.35;;;;;;;;;;5112704;28;20054;-70
2022/11/15 12:57:15;;;;;;;5.32;3.80;;;;;;;;;;5110102;28;20030;-70
2022/11/15 12:59:57;;;;;;;7.70;3.80;;;;;;;;;;5111289;28;20603;-70
2022/11/15 13:02:26;;;;;;;5.75;4.15;;;;;;;;;;5103556;28;20028;-70
2022/11/15 13:04:54;;;;;;;6.50;4.40;;;;;;;;;;5109528;28;20415;-70
2022/11/15 13:07:35;;;;;;;7.57;4.30;;;;;;;;;;5109272;28;20491;-70
2022/11/15 13:10:22;;;;;;;5.88;4.25;;;;;;;;;;5073961;28;20035;-70
2022/11/15 13:12:50;;;;;;;8.70;3.90;;;;;;;;;;5092455;28;20035;-70
2022/11/15 13:15:20;;;;;;;9.05;4.07;;;;;;;;;;5092104;28;20032;-70
2022/11/15 13:17:48;;;;;;;9.52;3.75;;;;;;;;;;5101532;28;20027;-70
2022/11/15 13:20:14;;;;;;;6.13;3.85;;;;;;;;;;5099331;28;20016;-69
2022/11/15 13:22:51;;;;;;;13.18;4.30;;;;;;;;;;5112170;28;20041;-70
2022/11/15 13:25:39;;;;;;;7.70;4.18;;;;;;;;;;5111989;28;20018;-70
2022/11/15 13:28:15;;;;;;;9.65;4.20;;;;;;;;;;5080482;28;20042;-70
2022/11/15 13:30:49;;;;;;;8.15;3.80;;;;;;;;;;5091978;28;20031;-70
2022/11/15 13:33:16;;;;;;;8.25;4.03;;;;;;;;;;5101838;28;20030;-70
2022/11/15 13:35:46;;;;;;;7.55;3.85;;;;;;;;;;5100511;28;20046;-70
2022/11/15 13:38:20;;;;;;;5.78;3.75;;;;;;;;;;5099365;28;20060;-70
2022/11/15 13:40:46;;;;;;;9.02;3.85;;;;;;;;;;5073788;28;20032;-70
2022/11/15 13:43:24;;;;;;;6.60;3.78;;;;;;;;;;5100912;28;20027;-70
2022/11/15 13:46:06;;;;;;;6.00;3.90;;;;;;;;;;5104344;28;20026;-70
2022/11/15 13:48:33;;;;;;;6.07;4.15;;;;;;;;;;5099087;28;20030;-70
2022/11/15 13:51:00;;;;;;;10.65;3.67;;;;;;;;;;5111836;28;20502;-70
2022/11/15 13:53:27;;;;;;;6.18;3.33;;;;;;;;;;5109663;28;20020;-70
2022/11/15 13:55:55;;;;;;;6.68;3.38;;;;;;;;;;5111687;28;20027;-70
2022/11/15 13:58:21;;;;;;;6.53;3.30;;;;;;;;;;5109393;28;20561;-70
2022/11/15 14:00:47;;;;;;;7.20;3.90;;;;;;;;;;5111358;28;20484;-70
2022/11/15 14:03:27;;;;;;;6.22;3.45;;;;;;;;;;5110452;28;20054;-70
2022/11/15 14:06:02;;;;;;;8.05;3.95;;;;;;;;;;5102420;28;20031;-70
2022/11/15 14:08:29;;;;;;;7.32;3.63;;;;;;;;;;5092926;28;20012;-70
2022/11/15 14:11:11;;;;;;;10.10;4.45;;;;;;;;;;5108374;28;20028;-70
2022/11/15 14:13:38;;;;;;;6.97;3.53;;;;;;;;;;5098953;28;20034;-70
2022/11/15 14:16:18;;;;;;;6.72;3.55;;;;;;;;;;5098841;28;20042;-70
2022/11/15 14:18:49;;;;;;;8.30;3.70;;;;;;;;;;5110543;28;20046;-70
2022/11/15 14:21:16;;;;;;;9.85;4.10;;;;;;;;;;5109087;28;20036;-69
2022/11/15 14:23:42;;;;;;;8.48;3.88;;;;;;;;;;5110913;28;20068;-70
2022/11/15 14:26:25;;;;;;;8.57;3.78;;;;;;;;;;5092589;28;20024;-70
2022/11/15 14:28:52;;;;;;;7.45;3.83;;;;;;;;;;5110862;28;20030;-70
2022/11/15 14:31:20;;;;;;;10.82;4.32;;;;;;;;;;5111489;28;20028;-71
2022/11/15 14:33:46;;;;;;;9.20;4.22;;;;;;;;;;5111366;28;20031;-70
2022/11/15 14:36:12;;;;;;;10.25;4.30;;;;;;;;;;5110318;28;20445;-70
2022/11/15 14:38:39;;;;;;;6.97;3.85;;;;;;;;;;5110637;28;20050;-70
2022/11/15 14:41:05;;;;;;;8.10;4.35;;;;;;;;;;5111552;28;20019;-70
2022/11/15 14:43:32;;;;;;;6.78;3.75;;;;;;;;;;5111281;28;20434;-69
2022/11/15 14:45:59;;;;;;;7.93;4.38;;;;;;;;;;5109892;28;20016;-70
2022/11/15 14:48:25;;;;;;;9.25;4.32;;;;;;;;;;5110912;28;20512;-70
2022/11/15 14:50:51;;;;;;;9.90;4.38;;;;;;;;;;5110773;28;20040;-70
2022/11/15 14:53:19;;;;;;;8.85;3.58;;;;;;;;;;5127627;28;20025;-70
2022/11/15 14:55:46;;;;;;;9.98;4.00;;;;;;;;;;5131507;28;20027;-70
2022/11/15 14:58:12;;;;;;;10.52;3.90;;;;;;;;;;5118126;28;20431;-70